This is the latest recevied weather packets stored in our database for station/object G7GQA-4. If no packets are shown the sender has not sent any weather packets the latest 10 day(s).
| Time | Temp. | Humidity | Pressure | Rain* | Wind** | Luminosity | Snow |
|---|---|---|---|---|---|---|---|
| 1777907122 | 15° C | 75% | - | 0 mm | - | 264 W/m² | - |
| 1777906521 | 15° C | 73% | - | 0 mm | - | 312 W/m² | - |
| 1777905922 | 15° C | 74% | - | 0 mm | - | 297 W/m² | - |
| 1777905322 | 15° C | 72% | - | 0 mm | - | 359 W/m² | - |
| 1777904722 | 14.44° C | 75% | - | 0 mm | - | 358 W/m² | - |
| 1777904122 | 14.44° C | 77% | - | 0 mm | - | 300 W/m² | - |
| 1777903522 | 13.89° C | 79% | - | 0 mm | - | 230 W/m² | - |
| 1777902922 | 13.89° C | 80% | - | 0 mm | - | 178 W/m² | - |
| 1777902322 | 13.89° C | 79% | - | 0 mm | - | 177 W/m² | - |
| 1777901722 | 13.89° C | 80% | - | 0 mm | - | 164 W/m² | - |
| 1777901122 | 13.89° C | 81% | - | 0 mm | - | 155 W/m² | - |
| 1777900522 | 13.33° C | 82% | - | 0 mm | - | 134 W/m² | - |
| 1777899922 | 12.78° C | 83% | - | 0 mm | - | 129 W/m² | - |
| 1777899322 | 12.78° C | 84% | - | 0 mm | - | 135 W/m² | - |
| 1777898722 | 12.78° C | 85% | - | 0 mm | - | 124 W/m² | - |
| 1777898121 | 12.22° C | 86% | - | 0 mm | - | 114 W/m² | - |
| 1777897521 | 12.22° C | 86% | - | 0 mm | - | 112 W/m² | - |
| 1777896921 | 12.22° C | 87% | - | 0 mm | - | 90 W/m² | - |
| 1777896321 | 12.22° C | 87% | - | 0 mm | - | 93 W/m² | - |
| 1777895721 | 12.22° C | 87% | - | 0 mm | - | 96 W/m² | - |
| 1777895121 | 12.22° C | 86% | - | 0 mm | - | 80 W/m² | - |
| 1777894521 | 13.33° C | 84% | - | 0 mm | - | 63 W/m² | - |
| 1777893921 | 12.78° C | 84% | - | 0 mm | - | 133 W/m² | - |
| 1777893321 | 12.22° C | 85% | - | 0 mm | - | 119 W/m² | - |
| 1777892721 | 12.22° C | 86% | - | 0 mm | - | 118 W/m² | - |
* Rain latest hour (hover to see other rain measurements)
** Current wind speed in m/s (hover to see current wind gust speed)